Flight Track Log - Related Links

Times and Time Zones

All times are in EDT time to prevent confusion due to time zone crossing. See the AWE1451 flight status page for this flight to view local times or setup timezone preferences in your user account.

Time Position Orientation Groundspeed Altitude Reporting Facility
EDT Latitude Longitude Course Direction KTS MPH feet Rate Location/Type
Sat 10:52:34 AM 39.8500 -75.2833 205° Southwest 181 208 1,100  Level Philadelphia TRACON
Sat 10:56:34 AM 39.6217 -75.4217 176° South 262 302 9,500 1,960 Climbing Washington Center
Sat 10:57:34 AM 39.5364 -75.4139 175° South 284 327 10,900 1,721 Climbing Washington Center
Sat 10:58:36 AM 39.4383 -75.4033 176° South 322 371 13,000 2,066 Climbing Washington Center
Sat 10:59:36 AM 39.3403 -75.3956 176° South 349 402 15,100 1,538 Climbing Washington Center
Sat 11:00:33 AM 39.2383 -75.3853 184° South 363 418 16,000 966 Climbing Washington Center
Sat 11:01:34 AM 39.1361 -75.3936 187° South 369 425 17,000 443 Climbing Washington Center
Sat 11:02:35 AM 39.0361 -75.4100 186° South 369 425 16,900 595 Descending Washington Center
Sat 11:03:35 AM 38.9319 -75.4236 187° South 369 425 18,200 1,450 Climbing Washington Center
Sat 11:04:35 AM 38.8256 -75.4397 187° South 375 432 19,800 1,537 Climbing Washington Center
Sat 11:05:36 AM 38.7172 -75.4558 188° South 387 445 21,300 1,438 Climbing Washington Center
Sat 11:06:36 AM 38.6067 -75.4747 185° South 397 457 22,700 1,424 Climbing Washington Center
Sat 11:07:34 AM 38.4942 -75.4883 186° South 407 468 24,100 1,271 Climbing Washington Center
Sat 11:08:34 AM 38.3775 -75.5042 168° South 412 474 25,200 1,131 Climbing Washington Center
Sat 11:09:36 AM 38.2628 -75.4728 161° South 446 513 26,400 1,361 Climbing Washington Center
Sat 11:10:33 AM 38.1458 -75.4228 159° South 440 506 27,900 1,068 Climbing Washington Center
Sat 11:11:34 AM 38.0311 -75.3678 159° South 440 506 28,500 1,041 Climbing Washington Center
Sat 11:12:34 AM 37.9100 -75.3103 161° South 447 514 30,000 1,636 Climbing Washington Center
Sat 11:13:35 AM 37.7972 -75.2606 160° South 447 514 31,800 1,328 Climbing Washington Center
Sat 11:14:36 AM 37.6825 -75.2086 160° South 440 506 32,700 595 Climbing Washington Center
Sat 11:15:36 AM 37.5736 -75.1594 159° South 434 499 33,000 150 Climbing Washington Center
Sat 11:16:36 AM 37.4650 -75.1078 161° South 424 488 33,000  Level Washington Center
Sat 11:17:35 AM 37.3522 -75.0589 160° South 424 488 33,000  Level Washington Center
Sat 11:18:36 AM 37.2394 -75.0075 160° South 429 494 33,000  Level Washington Center
Sat 11:19:36 AM 37.1286 -74.9561 160° South 429 494 33,000  Level Washington Center
Sat 11:21:33 AM 36.9100 -74.8578 160° South 420 483 33,000  Level New York Center
Sat 11:22:34 AM 36.7969 -74.8075 160° South 420 483 33,000  Level New York Center
Sat 11:23:33 AM 36.6842 -74.7550 161° South 420 483 33,000  Level New York Center
Sat 11:24:34 AM 36.5731 -74.7078 160° South 420 483 33,000  Level New York Center
Sat 11:25:34 AM 36.4497 -74.6522 161° South 420 483 33,000  Level New York Center
Sat 11:26:35 AM 36.3344 -74.6025 159° South 425 489 33,000  Level New York Center
Sat 11:27:35 AM 36.2256 -74.5508 162° South 431 496 33,000  Level New York Center
Sat 11:28:33 AM 36.1103 -74.5039 159° South 431 496 33,000 -101 Level New York Center
Sat 11:29:34 AM 36.0014 -74.4525 163° South 426 490 32,800 -492 Descending New York Center
Sat 11:30:35 AM 35.8881 -74.4086 158° South 426 490 32,000 -403 Descending New York Center
Sat 11:31:33 AM 35.7792 -74.3547 161° South 426 490 32,000  Level New York Center
Sat 11:32:34 AM 35.6678 -74.3086 161° South 421 484 32,000 -50 Level New York Center
Sat 11:33:34 AM 35.5567 -74.2628 159° South 421 484 31,900 -50 Descending New York Center
Sat 11:34:35 AM 35.4497 -74.2122 162° South 421 484 31,900 49 Level New York Center
Sat 11:35:36 AM 35.3361 -74.1664 161° South 421 484 32,000 50 Climbing New York Center
Sat 11:36:34 AM 35.2250 -74.1183 160° South 421 484 32,000  Level New York Center
Sat 11:37:35 AM 35.1136 -74.0678 162° South 421 484 32,000  Level New York Center
Sat 11:38:35 AM 35.0003 -74.0225 160° South 421 484 32,000  Level New York Center
Sat 11:39:34 AM 34.8869 -73.9722 162° South 421 484 32,000  Level New York Center
Sat 11:40:34 AM 34.7733 -73.9272 160° South 421 484 32,000 -50 Level New York Center
Sat 11:41:35 AM 34.6622 -73.8775 161° South 421 484 31,900  Descending New York Center
Sat 11:42:33 AM 34.5467 -73.8300 164° South 426 490 32,000 16 Climbing New York Center
Sat 11:47:51 AM 34.3667 -73.7667 165° South 433 498 32,000  Level New York Oceanic (ODAPS)
Sat 12:22:35 PM 30.1667 -72.4500 166° South 433 498 32,000  Level New York Oceanic (ODAPS)
Sat 12:58:05 PM 25.4575 -71.1664 168° South 429 494 32,000  Level Miami Center
Sat 01:03:05 PM 24.8233 -71.0153 173° South 449 517 32,000  Level Miami Center
Sat 01:04:05 PM 24.6972 -70.9983 176° South 449 517 32,000  Level Miami Center
Sat 01:05:05 PM 24.5694 -70.9886 174° South 449 517 32,000  Level Miami Center
Sat 01:06:05 PM 24.4436 -70.9739 171° South 454 522 32,000 450 Level Miami Center
Sat 01:07:05 PM 24.3197 -70.9525 164° South 459 528 32,900 500 Climbing Miami Center
Sat 01:08:05 PM 24.1950 -70.9128 164° South 459 528 33,000 50 Climbing Miami Center
Sat 01:09:05 PM 24.0722 -70.8733 167° South 464 534 33,000  Level Miami Center
Sat 01:10:05 PM 23.9544 -70.8447 164° South 458 527 33,000  Level Miami Center
Sat 01:11:05 PM 23.8317 -70.8053 166° South 452 520 33,000  Level Miami Center
Sat 01:12:05 PM 23.7114 -70.7725 163° South 452 520 33,000  Level Miami Center
Sat 01:13:05 PM 23.5886 -70.7308 168° South 452 520 33,000  Level Miami Center
Sat 01:14:05 PM 23.4686 -70.7028 164° South 452 520 33,000  Level Miami Center
Sat 01:15:05 PM 23.3481 -70.6656 163° South 452 520 33,000  Level Miami Center
Sat 01:16:05 PM 23.2275 -70.6264 166° South 452 520 33,000  Level Miami Center
Sat 01:17:05 PM 23.1050 -70.5939 165° South 458 527 33,000  Level Miami Center
Sat 01:18:05 PM 22.9828 -70.5592 165° South 458 527 33,000  Level Miami Center
Sat 01:19:05 PM 22.8600 -70.5225 165° South 458 527 33,000  Level Miami Center
Sat 01:20:05 PM 22.7375 -70.4858 166° South 458 527 33,000  Level Miami Center
Sat 01:21:05 PM 22.6172 -70.4533 163° South 458 527 33,000  Level Miami Center
Sat 01:22:05 PM 22.4967 -70.4144 165° South 458 527 33,000  Level Miami Center
Sat 01:23:05 PM 22.3764 -70.3800 166° South 458 527 33,000  Level Miami Center
Sat 01:24:05 PM 22.2539 -70.3458 165° South 458 527 33,000  Level Miami Center
Sat 01:25:05 PM 22.1356 -70.3114 164° South 458 527 33,000  Level Miami Center
Sat 01:26:05 PM 22.0131 -70.2747 165° South 458 527 33,000  Level Miami Center
Sat 01:27:05 PM 21.8947 -70.2406 165° South 458 527 33,000  Level Miami Center
Sat 01:28:05 PM 21.7744 -70.2064 165° South 458 527 33,000  Level Miami Center
Sat 01:29:05 PM 21.6542 -70.1722 165° South 453 521 33,000  Level Miami Center
Sat 01:30:05 PM 21.5339 -70.1381 165° South 448 516 33,000  Level Miami Center
Sat 01:31:05 PM 21.4283 -70.1078 164° South 448 516 33,000  Level Miami Center
Sat 01:32:05 PM 21.3078 -70.0714 165° South 442 509 33,000  Level Miami Center
Sat 01:33:05 PM 21.1897 -70.0375 165° South 442 509 33,000  Level Miami Center
Sat 01:34:05 PM 21.0714 -70.0033 165° South 442 509 33,000  Level Miami Center
Sat 01:35:05 PM 20.9511 -69.9694 165° South 442 509 33,000  Level Miami Center
Sat 01:36:05 PM 20.8331 -69.9356 166° South 447 514 33,000 -300 Level Miami Center
Sat 01:37:05 PM 20.7147 -69.9039 164° South 441 507 32,400 -800 Descending Miami Center
Sat 01:38:05 PM 20.5967 -69.8681 166° South 441 507 31,400 -1,000 Descending Miami Center
Sat 01:39:05 PM 20.4742 -69.8344 165° South 441 507 30,400 -1,000 Descending Miami Center
Sat 01:40:05 PM 20.3539 -69.8008 165° South 441 507 29,400 -950 Descending Miami Center
Sat 01:41:05 PM 20.2336 -69.7672 165° South 441 507 28,500 -950 Descending Miami Center
Sat 01:42:05 PM 20.1178 -69.7333 166° South 441 507 27,500 -750 Descending Miami Center
Sat 01:43:05 PM 20.0058 -69.7039 140° Southeast 435 501 27,000 -500 Descending Miami Center
Sat 01:50:52 PM 19.3196 -69.0861 138° Southeast  Level FlightAware Approximate
Sat 01:51:52 PM 19.2334 -69.0033 138° Southeast  Level FlightAware Approximate
Sat 01:52:52 PM 19.1472 -68.9205 137° Southeast  Level FlightAware Approximate
Sat 01:53:52 PM 19.0620 -68.8376 139° Southeast  Level FlightAware Approximate
Sat 01:54:52 PM 18.9739 -68.7573 138° Southeast  Level FlightAware Approximate
Sat 01:55:52 PM 18.8879 -68.6745 140° Southeast  Level FlightAware Approximate
Sat 01:56:52 PM 18.7994 -68.5954 138° Southeast  Level FlightAware Approximate
Sat 01:57:52 PM 18.7167 -68.5176 140° Southeast  Level FlightAware Approximate
Sat 01:58:52 PM 18.6289 -68.4385 124° Southeast  Level FlightAware Approximate
Sat 01:59:52 PM 18.5667 -68.3414 272° West  Level FlightAware Approximate
Sat 02:00:52 PM 18.5705 -68.4641 92° East  Level Estimated
Sat 02:01:52 PM 18.5667 -68.3414 272° West  Level FlightAware Approximate
Sat 02:02:52 PM 18.5705 -68.4641 92° East  Level Estimated
Sat 02:03:52 PM 18.5667 -68.3414 272° West  Level FlightAware Approximate
Sat 02:04:52 PM 18.5705 -68.4641 92° East  Level Estimated
Sat 02:05:52 PM 18.5667 -68.3333 271° West  Level FlightAware Approximate
Sat 02:06:52 PM 18.5695 -68.4561 91° East  Level Estimated
Sat 02:07:52 PM 18.5667 -68.3333 91° East  Level FlightAware Approximate

Login

Don't have an account? Register now (free) for customized features, flight alerts, and more!